Řízení letového provozu České republiky
OPMET data - Ceska Republika Aktualizace: 12.11.2018 19:46:06  UTC
SIGMET / AIRMET - NIL
Warning / Vystraha - NIL
 
METAR / SPECI
SPECI LKBC 121941Z AUTO 15003KT 110V190 6000 OVC004 08/07 Q1022=
METAR LKCV 121900Z 26005KT 9999 OVC017 10/08 Q1023 NOSIG RMK WHT WHT=
SPECI LKKB 121941Z 03003KT 350V050 5000 BR OVC014 09/08 Q1023 NOSIG RMK GRN=
METAR LKKU NIL
METAR LKKV 121900Z 12005KT 1200 R29/P2000N BR OVC002 04/04 Q1022 RMK REG QNH 1018=
SPECI LKLN 121940Z AUTO 13003KT 090V160 6000 OVC004 07/07 Q1023=
METAR LKMT 121930Z 21004KT CAVOK 11/08 Q1023 NOSIG RMK REG QNH 1018=
METAR LKNA 121900Z 08006KT 6000 SCT022 09/08 Q1022 NOSIG RMK WHT WHT=
METAR LKPD 121900Z 02002KT 9999 OVC023 11/09 Q1023 RMK BLACK=
METAR LKPR 121930Z 16005KT 100V190 9999 OVC011 09/07 Q1023 NOSIG RMK REG QNH 1018=
METAR LKTB 121930Z 09006KT CAVOK 10/07 Q1023 NOSIG RMK REG QNH 1018=
METAR LKVO NIL
TAF
TAF LKBC NIL
TAF LKCV 121700Z 1218/1318 15008KT 9999 OVC017      BECMG 1218/1220 11004KT      TEMPO 1219/1221 6000      TEMPO 1221/1309 3000 BR OVC007      BECMG 1309/1311 25005KT      BECMG 1314/1316 27012KT SCT030=
TAF LKKB 121700Z 1218/1318 28004KT 7000 OVC020      TEMPO 1218/1221 5000 BR OVC016      BECMG 1221/1223 3000 BR OVC010      BECMG 1301/1303 1200 BR OVC004      PROB30 TEMPO 1302/1306 VRB02KT 0500 FG OVC002      BECMG 1307/1309 3000 BR SCT006 OVC12      BECMG 1310/1312 27005KT 7000 SCT010 BKN018      BECMG 1311/1313 9999 BKN020      TEMPO 1316/1318 27012KT=
TAF LKKU NIL
TAF LKKV 121700Z 1218/1400 11006KT 2500 BR BKN002      TEMPO 1218/1308 1200 BR BKN001      PROB30 TEMPO 1222/1307 0300 FG      BECMG 1308/1310 26008KT 8000 BKN020      TEMPO 1310/1316 27010G20KT 4000 -RA BR BKN013=
TAF LKLN NIL
TAF LKMT 121700Z 1218/1400 21010KT 9999 SCT035      TEMPO 1311/1319 24014G24KT      BECMG 1317/1319 BKN025=
TAF LKNA 121700Z 1218/1318 13004KT 3500 BR BKN015      BECMG 1218/1221 VRB02KT 1200 BR OVC003      TEMPO 1219/1307 0400 FG VV001      BECMG 1310/1312 18006KT 3000 BKN010      BECMG 1314/1316 30006KT 7000 SCT020=
TAF LKPD NIL
TAF LKPR 121700Z 1218/1400 16006KT 9999 BKN015      TEMPO 1218/1300 4000 BR BKN008      BECMG 1300/1302 2500 BR BKN005      TEMPO 1302/1308 VRB02KT 0800 FG BKN003      PROB30 TEMPO 1302/1307 0300 FG BKN002      BECMG 1309/1311 25012KT 9999 SCT025      TEMPO 1311/1400 27016G26KT=
TAF LKTB 121700Z 1218/1400 12008KT 9999 BKN030      TEMPO 1221/1308 3500 BR BKN010      BECMG 1312/1315 27008KT      BECMG 1317/1319 34010KT SCT025=
TAF LKVO NIL